Terminal Aerodrome Forecast
Issued by NWS Missoula, MT

Home | Current Version | Previous Version | Text Only | Print | Product List | Glossary On
Versions: 1 2 3 4 5 6 7 8 9 10 11 12 13 14
940
FTUS45 KMSO 232320
TAFMSO
TAF
KMSO 232320Z 2400/2424 30004KT P6SM OVC050
     FM240300 35005KT 6SM -SHSN OVC040
     FM240600 05002KT 4SM -SN OVC030
     FM241500 12004KT 2SM -SN BR OVC015
     FM242300 13006KT 4SM -SN BR OVC030=

USA.gov is the U.S. government's official web portal to all federal, state and local government web resources and services.